sensor_id;sensor_type;location;lat;lon;timestamp;pressure;altitude;pressure_sealevel;temperature;humidity
65173;BME280;51758;52.218;5.172;2023-01-01T00:01:29;100020.91;;;13.69;100.00
65173;BME280;51758;52.218;5.172;2023-01-01T00:03:58;100036.00;;;13.73;100.00
65173;BME280;51758;52.218;5.172;2023-01-01T00:06:27;100035.59;;;13.76;100.00
65173;BME280;51758;52.218;5.172;2023-01-01T00:08:55;100030.34;;;13.76;100.00
65173;BME280;51758;52.218;5.172;2023-01-01T00:11:36;100049.00;;;13.86;100.00
65173;BME280;51758;52.218;5.172;2023-01-01T00:14:04;100040.31;;;13.86;100.00
65173;BME280;51758;52.218;5.172;2023-01-01T00:16:37;100062.28;;;13.91;100.00
65173;BME280;51758;52.218;5.172;2023-01-01T00:19:05;100066.34;;;13.87;100.00
65173;BME280;51758;52.218;5.172;2023-01-01T00:21:34;100064.53;;;13.88;100.00
65173;BME280;51758;52.218;5.172;2023-01-01T00:24:02;100064.53;;;13.88;100.00
65173;BME280;51758;52.218;5.172;2023-01-01T00:26:29;100066.13;;;13.89;100.00
65173;BME280;51758;52.218;5.172;2023-01-01T00:29:00;100063.72;;;13.87;100.00
65173;BME280;51758;52.218;5.172;2023-01-01T00:31:28;100066.13;;;13.89;100.00
65173;BME280;51758;52.218;5.172;2023-01-01T00:33:56;100082.31;;;14.04;100.00
65173;BME280;51758;52.218;5.172;2023-01-01T00:36:24;100072.31;;;13.94;100.00
65173;BME280;51758;52.218;5.172;2023-01-01T00:38:54;100078.72;;;13.98;100.00
65173;BME280;51758;52.218;5.172;2023-01-01T00:41:22;100082.38;;;13.97;100.00
65173;BME280;51758;52.218;5.172;2023-01-01T00:43:49;100087.72;;;13.91;100.00
65173;BME280;51758;52.218;5.172;2023-01-01T00:46:17;100081.78;;;13.95;100.00
65173;BME280;51758;52.218;5.172;2023-01-01T00:48:44;100077.94;;;13.98;100.00
65173;BME280;51758;52.218;5.172;2023-01-01T00:51:12;100077.34;;;13.96;100.00
65173;BME280;51758;52.218;5.172;2023-01-01T00:53:39;100071.16;;;13.90;100.00
65173;BME280;51758;52.218;5.172;2023-01-01T00:56:08;100063.06;;;13.92;100.00
65173;BME280;51758;52.218;5.172;2023-01-01T00:58:36;100071.16;;;13.90;100.00
65173;BME280;51758;52.218;5.172;2023-01-01T01:01:04;100073.63;;;13.85;100.00
65173;BME280;51758;52.218;5.172;2023-01-01T01:03:31;100072.59;;;13.86;100.00
65173;BME280;51758;52.218;5.172;2023-01-01T01:06:05;100076.19;;;13.92;100.00
65173;BME280;51758;52.218;5.172;2023-01-01T01:08:35;100069.56;;;13.89;100.00
65173;BME280;51758;52.218;5.172;2023-01-01T01:11:03;100089.53;;;13.90;100.00
65173;BME280;51758;52.218;5.172;2023-01-01T01:13:32;100085.44;;;13.94;100.00
65173;BME280;51758;52.218;5.172;2023-01-01T01:16:00;100096.44;;;13.85;100.00
65173;BME280;51758;52.218;5.172;2023-01-01T01:18:28;100104.47;;;13.90;100.00
65173;BME280;51758;52.218;5.172;2023-01-01T01:20:55;100109.63;;;13.96;100.00
65173;BME280;51758;52.218;5.172;2023-01-01T01:23:22;100136.91;;;13.95;100.00
65173;BME280;51758;52.218;5.172;2023-01-01T01:25:50;100132.66;;;13.94;100.00
65173;BME280;51758;52.218;5.172;2023-01-01T01:28:17;100115.78;;;13.90;100.00
65173;BME280;51758;52.218;5.172;2023-01-01T01:30:46;100116.63;;;13.84;100.00
65173;BME280;51758;52.218;5.172;2023-01-01T01:33:14;100118.56;;;13.71;100.00
65173;BME280;51758;52.218;5.172;2023-01-01T01:35:48;100113.28;;;13.77;100.00
65173;BME280;51758;52.218;5.172;2023-01-01T01:38:16;100118.88;;;13.81;100.00
65173;BME280;51758;52.218;5.172;2023-01-01T01:40:44;100112.25;;;13.78;100.00
65173;BME280;51758;52.218;5.172;2023-01-01T01:43:11;100115.69;;;13.79;100.00
65173;BME280;51758;52.218;5.172;2023-01-01T01:45:47;100119.94;;;13.73;100.00
65173;BME280;51758;52.218;5.172;2023-01-01T01:48:15;100114.72;;;13.73;100.00
65173;BME280;51758;52.218;5.172;2023-01-01T01:50:43;100131.84;;;13.76;100.00
65173;BME280;51758;52.218;5.172;2023-01-01T01:53:13;100123.59;;;13.72;100.00
65173;BME280;51758;52.218;5.172;2023-01-01T01:55:45;100126.81;;;13.74;100.00
65173;BME280;51758;52.218;5.172;2023-01-01T01:58:13;100114.72;;;13.73;100.00
65173;BME280;51758;52.218;5.172;2023-01-01T02:00:41;100120.94;;;13.79;100.00
65173;BME280;51758;52.218;5.172;2023-01-01T02:03:11;100139.13;;;13.74;100.00
65173;BME280;51758;52.218;5.172;2023-01-01T02:05:40;100133.66;;;13.75;100.00
65173;BME280;51758;52.218;5.172;2023-01-01T02:08:07;100138.69;;;13.77;100.00
65173;BME280;51758;52.218;5.172;2023-01-01T02:10:36;100148.59;;;13.75;100.00
65173;BME280;51758;52.218;5.172;2023-01-01T02:13:03;100144.38;;;13.74;100.00
65173;BME280;51758;52.218;5.172;2023-01-01T02:15:33;100150.59;;;13.79;100.00
65173;BME280;51758;52.218;5.172;2023-01-01T02:18:02;100152.19;;;13.80;100.00
65173;BME280;51758;52.218;5.172;2023-01-01T02:20:34;100149.19;;;13.77;100.00
65173;BME280;51758;52.218;5.172;2023-01-01T02:23:11;100159.09;;;13.75;100.00
65173;BME280;51758;52.218;5.172;2023-01-01T02:25:45;100157.28;;;13.75;100.00
65173;BME280;51758;52.218;5.172;2023-01-01T02:28:18;100156.69;;;13.73;100.00
65173;BME280;51758;52.218;5.172;2023-01-01T02:30:47;100159.91;;;13.75;100.00
65173;BME280;51758;52.218;5.172;2023-01-01T02:33:16;100165.75;;;13.77;100.00
65173;BME280;51758;52.218;5.172;2023-01-01T02:35:44;100173.81;;;13.76;100.00
65173;BME280;51758;52.218;5.172;2023-01-01T02:38:15;100167.19;;;13.73;100.00
65173;BME280;51758;52.218;5.172;2023-01-01T02:40:46;100166.44;;;13.66;100.00
65173;BME280;51758;52.218;5.172;2023-01-01T02:43:14;100156.97;;;13.65;100.00
65173;BME280;51758;52.218;5.172;2023-01-01T02:45:51;100176.28;;;13.71;100.00
65173;BME280;51758;52.218;5.172;2023-01-01T02:48:36;100170.00;;;13.72;100.00
65173;BME280;51758;52.218;5.172;2023-01-01T02:51:06;100177.94;;;13.65;100.00
65173;BME280;51758;52.218;5.172;2023-01-01T02:53:36;100179.56;;;13.66;100.00
65173;BME280;51758;52.218;5.172;2023-01-01T02:56:10;100171.22;;;13.69;100.00
65173;BME280;51758;52.218;5.172;2023-01-01T02:58:39;100190.59;;;13.68;100.00
65173;BME280;51758;52.218;5.172;2023-01-01T03:01:30;100195.44;;;13.71;100.00
65173;BME280;51758;52.218;5.172;2023-01-01T03:04:06;100186.75;;;13.71;100.00
65173;BME280;51758;52.218;5.172;2023-01-01T03:06:36;100207.81;;;13.64;100.00
65173;BME280;51758;52.218;5.172;2023-01-01T03:09:10;100195.72;;;13.63;100.00
65173;BME280;51758;52.218;5.172;2023-01-01T03:11:41;100194.91;;;13.62;100.00
65173;BME280;51758;52.218;5.172;2023-01-01T03:14:13;100202.34;;;13.66;100.00
65173;BME280;51758;52.218;5.172;2023-01-01T03:16:45;100197.13;;;13.59;100.00
65173;BME280;51758;52.218;5.172;2023-01-01T03:19:15;100203.84;;;13.55;100.00
65173;BME280;51758;52.218;5.172;2023-01-01T03:21:46;100193.56;;;13.53;100.00
65173;BME280;51758;52.218;5.172;2023-01-01T03:24:16;100199.38;;;13.55;100.00
65173;BME280;51758;52.218;5.172;2023-01-01T03:26:47;100201.00;;;13.56;100.00
65173;BME280;51758;52.218;5.172;2023-01-01T03:29:16;100201.22;;;13.55;100.00
65173;BME280;51758;52.218;5.172;2023-01-01T03:31:46;100207.91;;;13.51;100.00
65173;BME280;51758;52.218;5.172;2023-01-01T03:34:15;100219.78;;;13.53;100.00
65173;BME280;51758;52.218;5.172;2023-01-01T03:36:45;100194.41;;;13.47;100.00
65173;BME280;51758;52.218;5.172;2023-01-01T03:39:16;100167.94;;;13.24;100.00
65173;BME280;51758;52.218;5.172;2023-01-01T03:41:46;100168.34;;;13.21;100.00
65173;BME280;51758;52.218;5.172;2023-01-01T03:44:16;100167.72;;;13.25;100.00
65173;BME280;51758;52.218;5.172;2023-01-01T03:46:47;100156.66;;;13.23;100.00
65173;BME280;51758;52.218;5.172;2023-01-01T03:49:15;100165.44;;;13.36;100.00
65173;BME280;51758;52.218;5.172;2023-01-01T03:51:52;100190.59;;;13.43;100.00
65173;BME280;51758;52.218;5.172;2023-01-01T03:54:25;100195.88;;;13.37;100.00
65173;BME280;51758;52.218;5.172;2023-01-01T03:56:57;100183.41;;;13.32;100.00
65173;BME280;51758;52.218;5.172;2023-01-01T03:59:29;100187.00;;;13.38;100.00
65173;BME280;51758;52.218;5.172;2023-01-01T04:02:01;100190.25;;;13.33;100.00
65173;BME280;51758;52.218;5.172;2023-01-01T04:04:30;100202.41;;;13.27;100.00
65173;BME280;51758;52.218;5.172;2023-01-01T04:06:58;100200.00;;;13.26;100.00
65173;BME280;51758;52.218;5.172;2023-01-01T04:09:41;100211.09;;;13.21;100.00
65173;BME280;51758;52.218;5.172;2023-01-01T04:12:09;100188.72;;;13.19;100.00
65173;BME280;51758;52.218;5.172;2023-01-01T04:14:37;100199.66;;;13.16;100.00
65173;BME280;51758;52.218;5.172;2023-01-01T04:17:07;100202.06;;;13.11;100.00
65173;BME280;51758;52.218;5.172;2023-01-01T04:19:35;100187.75;;;13.07;100.00
65173;BME280;51758;52.218;5.172;2023-01-01T04:22:03;100194.06;;;12.99;100.00
65173;BME280;51758;52.218;5.172;2023-01-01T04:24:30;100173.59;;;12.76;100.00
65173;BME280;51758;52.218;5.172;2023-01-01T04:26:58;100223.88;;;12.98;100.00
65173;BME280;51758;52.218;5.172;2023-01-01T04:29:25;100233.16;;;12.94;100.00
65173;BME280;51758;52.218;5.172;2023-01-01T04:31:53;100234.63;;;12.90;100.00
65173;BME280;51758;52.218;5.172;2023-01-01T04:34:22;100236.03;;;12.86;100.00
65173;BME280;51758;52.218;5.172;2023-01-01T04:36:49;100235.63;;;12.82;100.00
65173;BME280;51758;52.218;5.172;2023-01-01T04:39:17;100238.88;;;12.78;100.00
65173;BME280;51758;52.218;5.172;2023-01-01T04:41:45;100248.16;;;12.67;100.00
65173;BME280;51758;52.218;5.172;2023-01-01T04:44:13;100235.50;;;12.64;100.00
65173;BME280;51758;52.218;5.172;2023-01-01T04:46:40;100223.41;;;12.63;100.00
65173;BME280;51758;52.218;5.172;2023-01-01T04:49:09;100229.88;;;12.61;100.00
65173;BME280;51758;52.218;5.172;2023-01-01T04:51:38;100209.16;;;12.46;100.00
65173;BME280;51758;52.218;5.172;2023-01-01T04:54:05;100210.34;;;12.43;100.00
65173;BME280;51758;52.218;5.172;2023-01-01T04:56:33;100198.72;;;12.39;100.00
65173;BME280;51758;52.218;5.172;2023-01-01T04:59:00;100188.03;;;12.34;100.00
65173;BME280;51758;52.218;5.172;2023-01-01T05:01:28;100181.81;;;12.22;100.00
65173;BME280;51758;52.218;5.172;2023-01-01T05:03:57;100180.00;;;12.23;100.00
65173;BME280;51758;52.218;5.172;2023-01-01T05:06:25;100171.75;;;12.26;100.00
65173;BME280;51758;52.218;5.172;2023-01-01T05:08:54;100155.44;;;12.17;100.00
65173;BME280;51758;52.218;5.172;2023-01-01T05:11:23;100158.66;;;12.19;100.00
65173;BME280;51758;52.218;5.172;2023-01-01T05:13:52;100173.19;;;12.15;100.00
65173;BME280;51758;52.218;5.172;2023-01-01T05:16:21;100164.50;;;12.21;100.00
65173;BME280;51758;52.218;5.172;2023-01-01T05:18:50;100169.34;;;12.17;100.00
65173;BME280;51758;52.218;5.172;2023-01-01T05:21:18;100184.25;;;12.24;100.00
65173;BME280;51758;52.218;5.172;2023-01-01T05:23:46;100204.56;;;12.22;100.00
65173;BME280;51758;52.218;5.172;2023-01-01T05:26:16;100203.16;;;12.19;100.00
65173;BME280;51758;52.218;5.172;2023-01-01T05:28:44;100220.66;;;12.18;100.00
65173;BME280;51758;52.218;5.172;2023-01-01T05:31:13;100220.88;;;12.17;100.00
65173;BME280;51758;52.218;5.172;2023-01-01T05:33:40;100215.22;;;12.20;100.00
65173;BME280;51758;52.218;5.172;2023-01-01T05:36:09;100240.63;;;12.13;100.00
65173;BME280;51758;52.218;5.172;2023-01-01T05:38:37;100255.13;;;12.15;100.00
65173;BME280;51758;52.218;5.172;2023-01-01T05:41:04;100272.22;;;12.11;100.00
65173;BME280;51758;52.218;5.172;2023-01-01T05:43:33;100288.53;;;12.13;100.00
65173;BME280;51758;52.218;5.172;2023-01-01T05:46:01;100297.19;;;12.14;100.00
65173;BME280;51758;52.218;5.172;2023-01-01T05:48:29;100300.38;;;12.16;100.00
65173;BME280;51758;52.218;5.172;2023-01-01T05:51:00;100303.41;;;12.13;100.00
65173;BME280;51758;52.218;5.172;2023-01-01T05:53:28;100330.41;;;12.13;100.00
65173;BME280;51758;52.218;5.172;2023-01-01T05:55:56;100338.03;;;12.15;100.00
65173;BME280;51758;52.218;5.172;2023-01-01T05:58:24;100340.66;;;12.15;100.00
65173;BME280;51758;52.218;5.172;2023-01-01T06:00:53;100352.31;;;12.12;100.00
65173;BME280;51758;52.218;5.172;2023-01-01T06:03:21;100356.75;;;12.12;100.00
65173;BME280;51758;52.218;5.172;2023-01-01T06:05:48;100369.63;;;12.07;100.00
65173;BME280;51758;52.218;5.172;2023-01-01T06:08:16;100361.97;;;11.99;100.00
65173;BME280;51758;52.218;5.172;2023-01-01T06:10:43;100376.84;;;12.05;100.00
65173;BME280;51758;52.218;5.172;2023-01-01T06:13:11;100378.28;;;12.01;100.00
65173;BME280;51758;52.218;5.172;2023-01-01T06:15:39;100369.59;;;11.94;100.00
65173;BME280;51758;52.218;5.172;2023-01-01T06:18:07;100370.00;;;11.97;100.00
65173;BME280;51758;52.218;5.172;2023-01-01T06:20:35;100387.91;;;11.94;100.00
65173;BME280;51758;52.218;5.172;2023-01-01T06:23:02;100374.81;;;11.94;100.00
65173;BME280;51758;52.218;5.172;2023-01-01T06:25:30;100372.00;;;11.89;100.00
65173;BME280;51758;52.218;5.172;2023-01-01T06:27:57;100375.22;;;11.84;100.00
65173;BME280;51758;52.218;5.172;2023-01-01T06:30:25;100390.72;;;11.86;100.00
65173;BME280;51758;52.218;5.172;2023-01-01T06:32:52;100389.09;;;11.84;100.00
65173;BME280;51758;52.218;5.172;2023-01-01T06:35:21;100394.94;;;11.87;100.00
65173;BME280;51758;52.218;5.172;2023-01-01T06:37:48;100412.81;;;11.83;100.00
65173;BME280;51758;52.218;5.172;2023-01-01T06:40:16;100412.22;;;11.81;100.00
65173;BME280;51758;52.218;5.172;2023-01-01T06:42:44;100411.59;;;11.79;100.00
65173;BME280;51758;52.218;5.172;2023-01-01T06:45:11;100412.22;;;11.81;100.00
65173;BME280;51758;52.218;5.172;2023-01-01T06:47:39;100419.66;;;11.77;100.00
65173;BME280;51758;52.218;5.172;2023-01-01T06:50:07;100418.03;;;11.76;100.00
65173;BME280;51758;52.218;5.172;2023-01-01T06:52:36;100412.56;;;11.71;100.00
65173;BME280;51758;52.218;5.172;2023-01-01T06:55:03;100419.41;;;11.72;100.00
65173;BME280;51758;52.218;5.172;2023-01-01T06:57:31;100420.41;;;11.71;100.00
65173;BME280;51758;52.218;5.172;2023-01-01T06:59:59;100428.63;;;11.62;100.00
65173;BME280;51758;52.218;5.172;2023-01-01T07:02:27;100425.56;;;11.58;100.00
65173;BME280;51758;52.218;5.172;2023-01-01T07:04:55;100434.41;;;11.57;100.00
65173;BME280;51758;52.218;5.172;2023-01-01T07:07:22;100441.03;;;11.53;100.00
65173;BME280;51758;52.218;5.172;2023-01-01T07:09:51;100456.69;;;11.53;100.00
65173;BME280;51758;52.218;5.172;2023-01-01T07:12:18;100462.09;;;11.45;100.00
65173;BME280;51758;52.218;5.172;2023-01-01T07:14:46;100473.00;;;11.48;100.00
65173;BME280;51758;52.218;5.172;2023-01-01T07:17:13;100488.66;;;11.48;100.00
65173;BME280;51758;52.218;5.172;2023-01-01T07:19:41;100499.06;;;11.42;100.00
65173;BME280;51758;52.218;5.172;2023-01-01T07:22:08;100516.75;;;11.40;100.00
65173;BME280;51758;52.218;5.172;2023-01-01T07:24:36;100499.47;;;11.39;100.00
65173;BME280;51758;52.218;5.172;2023-01-01T07:27:06;100497.47;;;11.41;100.00
65173;BME280;51758;52.218;5.172;2023-01-01T07:29:34;100504.28;;;11.35;100.00
65173;BME280;51758;52.218;5.172;2023-01-01T07:32:01;100528.53;;;11.29;100.00
65173;BME280;51758;52.218;5.172;2023-01-01T07:34:29;100537.00;;;11.31;100.00
65173;BME280;51758;52.218;5.172;2023-01-01T07:36:57;100536.38;;;11.29;100.00
65173;BME280;51758;52.218;5.172;2023-01-01T07:39:24;100558.72;;;11.32;100.00
65173;BME280;51758;52.218;5.172;2023-01-01T07:41:52;100564.31;;;11.29;100.00
65173;BME280;51758;52.218;5.172;2023-01-01T07:44:21;100548.97;;;11.19;100.00
65173;BME280;51758;52.218;5.172;2023-01-01T07:46:48;100536.28;;;11.16;100.00
65173;BME280;51758;52.218;5.172;2023-01-01T07:49:16;100519.97;;;10.86;100.00
65173;BME280;51758;52.218;5.172;2023-01-01T07:51:43;100568.50;;;11.02;100.00
65173;BME280;51758;52.218;5.172;2023-01-01T07:54:11;100558.81;;;10.96;100.00
65173;BME280;51758;52.218;5.172;2023-01-01T07:56:38;100568.09;;;10.98;100.00
65173;BME280;51758;52.218;5.172;2023-01-01T07:59:06;100574.94;;;10.99;100.00
65173;BME280;51758;52.218;5.172;2023-01-01T08:01:35;100588.00;;;10.99;100.00
65173;BME280;51758;52.218;5.172;2023-01-01T08:04:03;100594.22;;;10.98;100.00
65173;BME280;51758;52.218;5.172;2023-01-01T08:06:31;100603.41;;;10.94;100.00
65173;BME280;51758;52.218;5.172;2023-01-01T08:08:59;100606.00;;;10.94;100.00
65173;BME280;51758;52.218;5.172;2023-01-01T08:11:27;100610.38;;;10.87;100.00
65173;BME280;51758;52.218;5.172;2023-01-01T08:13:54;100611.19;;;10.88;100.00
65173;BME280;51758;52.218;5.172;2023-01-01T08:16:22;100613.97;;;10.86;100.00
65173;BME280;51758;52.218;5.172;2023-01-01T08:18:50;100623.16;;;10.82;100.00
65173;BME280;51758;52.218;5.172;2023-01-01T08:21:18;100614.25;;;10.76;100.00
65173;BME280;51758;52.218;5.172;2023-01-01T08:23:45;100625.91;;;10.74;100.00
65173;BME280;51758;52.218;5.172;2023-01-01T08:26:13;100607.63;;;10.74;100.00
65173;BME280;51758;52.218;5.172;2023-01-01T08:28:41;100609.03;;;10.76;100.00
65173;BME280;51758;52.218;5.172;2023-01-01T08:31:09;100612.56;;;10.69;100.00
65173;BME280;51758;52.218;5.172;2023-01-01T08:33:36;100613.38;;;10.69;100.00
65173;BME280;51758;52.218;5.172;2023-01-01T08:36:05;100598.91;;;10.67;100.00
65173;BME280;51758;52.218;5.172;2023-01-01T08:38:33;100601.25;;;10.62;100.00
65173;BME280;51758;52.218;5.172;2023-01-01T08:41:01;100592.97;;;10.58;100.00
65173;BME280;51758;52.218;5.172;2023-01-01T08:43:28;100602.25;;;10.61;100.00
65173;BME280;51758;52.218;5.172;2023-01-01T08:45:56;100578.09;;;10.37;100.00
65173;BME280;51758;52.218;5.172;2023-01-01T08:48:23;100610.09;;;10.61;100.00
65173;BME280;51758;52.218;5.172;2023-01-01T08:50:57;100612.88;;;10.59;100.00
65173;BME280;51758;52.218;5.172;2023-01-01T08:53:28;100623.31;;;10.59;100.00
65173;BME280;51758;52.218;5.172;2023-01-01T08:55:56;100617.19;;;10.52;100.00
65173;BME280;51758;52.218;5.172;2023-01-01T08:58:23;100638.97;;;10.59;100.00
65173;BME280;51758;52.218;5.172;2023-01-01T09:00:51;100635.44;;;10.67;100.00
65173;BME280;51758;52.218;5.172;2023-01-01T09:03:19;100645.88;;;10.67;100.00
65173;BME280;51758;52.218;5.172;2023-01-01T09:05:46;100641.66;;;10.66;100.00
65173;BME280;51758;52.218;5.172;2023-01-01T09:08:14;100648.13;;;10.70;100.00
65173;BME280;51758;52.218;5.172;2023-01-01T09:10:43;100652.56;;;10.69;100.00
65173;BME280;51758;52.218;5.172;2023-01-01T09:13:11;100656.44;;;10.73;100.00
65173;BME280;51758;52.218;5.172;2023-01-01T09:15:39;100655.69;;;10.80;100.00
65173;BME280;51758;52.218;5.172;2023-01-01T09:18:08;100659.56;;;10.84;100.00
65173;BME280;51758;52.218;5.172;2023-01-01T09:20:35;100664.84;;;10.90;100.00
65173;BME280;51758;52.218;5.172;2023-01-01T09:23:03;100649.88;;;10.99;100.00
65173;BME280;51758;52.218;5.172;2023-01-01T09:25:31;100648.44;;;10.96;100.00
65173;BME280;51758;52.218;5.172;2023-01-01T09:28:01;100648.16;;;10.91;100.00
65173;BME280;51758;52.218;5.172;2023-01-01T09:30:29;100647.09;;;11.00;100.00
65173;BME280;51758;52.218;5.172;2023-01-01T09:32:56;100653.13;;;11.01;100.00
65173;BME280;51758;52.218;5.172;2023-01-01T09:35:24;100653.53;;;11.04;100.00
65173;BME280;51758;52.218;5.172;2023-01-01T09:37:51;100654.66;;;11.17;100.00
65173;BME280;51758;52.218;5.172;2023-01-01T09:40:22;100661.16;;;11.21;100.00
65173;BME280;51758;52.218;5.172;2023-01-01T09:42:54;100651.31;;;11.23;100.00
65173;BME280;51758;52.218;5.172;2023-01-01T09:45:28;100667.06;;;11.29;100.00
65173;BME280;51758;52.218;5.172;2023-01-01T09:47:58;100662.59;;;11.23;100.00
65173;BME280;51758;52.218;5.172;2023-01-01T09:50:28;100681.56;;;11.32;100.00
65173;BME280;51758;52.218;5.172;2023-01-01T09:52:57;100690.47;;;11.37;100.00
65173;BME280;51758;52.218;5.172;2023-01-01T09:55:26;100695.69;;;11.37;100.00
65173;BME280;51758;52.218;5.172;2023-01-01T09:57:54;100712.59;;;11.41;100.00
65173;BME280;51758;52.218;5.172;2023-01-01T10:00:22;100706.16;;;11.37;100.00
65173;BME280;51758;52.218;5.172;2023-01-01T10:03:01;100698.13;;;11.39;100.00
65173;BME280;51758;52.218;5.172;2023-01-01T10:05:35;100711.78;;;11.41;100.00
65173;BME280;51758;52.218;5.172;2023-01-01T10:08:05;100712.38;;;11.36;100.00
65173;BME280;51758;52.218;5.172;2023-01-01T10:10:37;100711.94;;;11.33;100.00
65173;BME280;51758;52.218;5.172;2023-01-01T10:13:07;100712.38;;;11.36;100.00
65173;BME280;51758;52.218;5.172;2023-01-01T10:15:43;100704.09;;;11.33;100.00
65173;BME280;51758;52.218;5.172;2023-01-01T10:18:19;100704.25;;;11.31;100.00
65173;BME280;51758;52.218;5.172;2023-01-01T10:20:49;100703.09;;;11.34;100.00
65173;BME280;51758;52.218;5.172;2023-01-01T10:23:19;100696.31;;;11.39;100.00
65173;BME280;51758;52.218;5.172;2023-01-01T10:25:48;100682.44;;;11.39;100.00
65173;BME280;51758;52.218;5.172;2023-01-01T10:28:18;100685.66;;;11.41;100.00
65173;BME280;51758;52.218;5.172;2023-01-01T10:30:47;100672.00;;;11.39;100.00
65173;BME280;51758;52.218;5.172;2023-01-01T10:33:17;100653.38;;;11.48;100.00
65173;BME280;51758;52.218;5.172;2023-01-01T10:35:45;100659.97;;;11.44;100.00
65173;BME280;51758;52.218;5.172;2023-01-01T10:38:16;100638.13;;;11.52;100.00
65173;BME280;51758;52.218;5.172;2023-01-01T10:40:45;100635.91;;;11.56;100.00
65173;BME280;51758;52.218;5.172;2023-01-01T10:43:13;100623.28;;;11.59;100.00
65173;BME280;51758;52.218;5.172;2023-01-01T10:45:41;100617.41;;;11.78;100.00
65173;BME280;51758;52.218;5.172;2023-01-01T10:48:14;100629.97;;;11.90;100.00
65173;BME280;51758;52.218;5.172;2023-01-01T10:50:44;100636.47;;;12.00;100.00
65173;BME280;51758;52.218;5.172;2023-01-01T10:53:26;100655.06;;;12.12;100.00
65173;BME280;51758;52.218;5.172;2023-01-01T10:56:01;100675.94;;;12.05;100.00
65173;BME280;51758;52.218;5.172;2023-01-01T10:58:33;100671.94;;;12.03;100.00
65173;BME280;51758;52.218;5.172;2023-01-01T11:01:02;100673.31;;;11.99;100.00
65173;BME280;51758;52.218;5.172;2023-01-01T11:03:31;100673.75;;;12.09;100.00
65173;BME280;51758;52.218;5.172;2023-01-01T11:06:00;100653.94;;;11.93;100.00
65173;BME280;51758;52.218;5.172;2023-01-01T11:08:28;100688.09;;;12.13;100.00
65173;BME280;51758;52.218;5.172;2023-01-01T11:10:56;100683.97;;;12.04;100.00
65173;BME280;51758;52.218;5.172;2023-01-01T11:13:25;100681.00;;;12.07;100.00
65173;BME280;51758;52.218;5.172;2023-01-01T11:15:54;100677.19;;;12.09;100.00
65173;BME280;51758;52.218;5.172;2023-01-01T11:18:22;100674.91;;;12.00;100.00
65173;BME280;51758;52.218;5.172;2023-01-01T11:20:52;100674.56;;;12.09;100.00
65173;BME280;51758;52.218;5.172;2023-01-01T11:23:29;100678.75;;;12.04;100.00
65173;BME280;51758;52.218;5.172;2023-01-01T11:25:58;100661.91;;;12.13;100.00
65173;BME280;51758;52.218;5.172;2023-01-01T11:28:26;100657.63;;;12.05;100.00
65173;BME280;51758;52.218;5.172;2023-01-01T11:30:57;100654.78;;;12.00;100.00
65173;BME280;51758;52.218;5.172;2023-01-01T11:33:26;100660.03;;;12.00;100.00
65173;BME280;51758;52.218;5.172;2023-01-01T11:35:54;100654.78;;;12.00;100.00
65173;BME280;51758;52.218;5.172;2023-01-01T11:38:23;100646.69;;;11.95;100.00
65173;BME280;51758;52.218;5.172;2023-01-01T11:40:59;100645.09;;;11.94;100.00
65173;BME280;51758;52.218;5.172;2023-01-01T11:43:28;100642.47;;;11.94;100.00
65173;BME280;51758;52.218;5.172;2023-01-01T11:45:59;100628.56;;;11.94;100.00
65173;BME280;51758;52.218;5.172;2023-01-01T11:48:27;100624.75;;;11.90;100.00
65173;BME280;51758;52.218;5.172;2023-01-01T11:50:57;100619.88;;;11.87;100.00
65173;BME280;51758;52.218;5.172;2023-01-01T11:53:28;100624.53;;;11.91;100.00
65173;BME280;51758;52.218;5.172;2023-01-01T11:56:01;100623.50;;;11.86;100.00
65173;BME280;51758;52.218;5.172;2023-01-01T11:58:31;100621.63;;;11.79;100.00
65173;BME280;51758;52.218;5.172;2023-01-01T12:01:04;100617.63;;;11.77;100.00
65173;BME280;51758;52.218;5.172;2023-01-01T12:03:36;100627.50;;;11.81;100.00
65173;BME280;51758;52.218;5.172;2023-01-01T12:06:07;100618.91;;;11.88;100.00
65173;BME280;51758;52.218;5.172;2023-01-01T12:08:38;100619.59;;;11.75;100.00
65173;BME280;51758;52.218;5.172;2023-01-01T12:11:09;100622.63;;;11.78;100.00
65173;BME280;51758;52.218;5.172;2023-01-01T12:13:43;100624.44;;;11.78;100.00
65173;BME280;51758;52.218;5.172;2023-01-01T12:16:12;100614.19;;;11.76;100.00
65173;BME280;51758;52.218;5.172;2023-01-01T12:18:43;100619.66;;;11.81;100.00
65173;BME280;51758;52.218;5.172;2023-01-01T12:21:14;100614.78;;;11.78;100.00
65173;BME280;51758;52.218;5.172;2023-01-01T12:23:44;100606.38;;;11.83;100.00
65173;BME280;51758;52.218;5.172;2023-01-01T12:26:16;100611.03;;;11.88;100.00
65173;BME280;51758;52.218;5.172;2023-01-01T12:28:50;100609.25;;;11.95;100.00
65173;BME280;51758;52.218;5.172;2023-01-01T12:31:24;100598.97;;;11.87;100.00
65173;BME280;51758;52.218;5.172;2023-01-01T12:33:56;100593.13;;;11.91;100.00
65173;BME280;51758;52.218;5.172;2023-01-01T12:36:33;100603.75;;;11.83;100.00
65173;BME280;51758;52.218;5.172;2023-01-01T12:39:19;100587.88;;;11.84;100.00
65173;BME280;51758;52.218;5.172;2023-01-01T12:42:03;100577.31;;;12.06;100.00
65173;BME280;51758;52.218;5.172;2023-01-01T12:44:37;100596.06;;;12.03;100.00
65173;BME280;51758;52.218;5.172;2023-01-01T12:47:10;100594.81;;;11.99;100.00
65173;BME280;51758;52.218;5.172;2023-01-01T12:49:47;100613.75;;;12.01;100.00
65173;BME280;51758;52.218;5.172;2023-01-01T12:52:20;100592.19;;;11.99;100.00